createdAt,value
2022-12-27T00:01:12.160Z,6.42
2022-12-27T00:03:39.985Z,6.27
2022-12-27T00:06:11.462Z,6.13
2022-12-27T00:08:38.418Z,6.02
2022-12-27T00:11:10.243Z,5.96
2022-12-27T00:13:37.192Z,5.95
2022-12-27T00:16:08.999Z,5.92
2022-12-27T00:18:36.196Z,5.88
2022-12-27T00:21:03.448Z,5.84
2022-12-27T00:23:32.673Z,5.79
2022-12-27T00:26:03.725Z,5.73
2022-12-27T00:28:34.249Z,5.72
2022-12-27T00:31:03.413Z,5.73
2022-12-27T00:33:30.996Z,5.71
2022-12-27T00:36:02.437Z,5.69
2022-12-27T00:38:29.409Z,5.66
2022-12-27T00:40:56.334Z,5.65
2022-12-27T00:43:24.178Z,5.62
2022-12-27T00:45:51.150Z,5.64
2022-12-27T00:48:17.951Z,5.69
2022-12-27T00:50:45.115Z,5.70
2022-12-27T00:53:12.394Z,5.68
2022-12-27T00:55:39.520Z,5.66
2022-12-27T00:58:06.474Z,5.63
2022-12-27T01:00:33.512Z,5.60
2022-12-27T01:03:00.556Z,5.62
2022-12-27T01:05:27.390Z,5.66
2022-12-27T01:07:54.441Z,5.68
2022-12-27T01:10:21.426Z,5.67
2022-12-27T01:12:48.333Z,5.64
2022-12-27T01:15:15.197Z,5.59
2022-12-27T01:17:42.124Z,5.53
2022-12-27T01:20:09.387Z,5.55
2022-12-27T01:22:36.516Z,5.59
2022-12-27T01:25:03.879Z,5.57
2022-12-27T01:27:30.709Z,5.50
2022-12-27T01:29:57.664Z,5.43
2022-12-27T01:32:24.611Z,5.37
2022-12-27T01:34:51.656Z,5.29
2022-12-27T01:37:18.710Z,5.21
2022-12-27T01:39:45.527Z,5.20
2022-12-27T01:42:35.843Z,5.23
2022-12-27T01:45:16.473Z,5.22
2022-12-27T01:48:09.969Z,5.19
2022-12-27T01:50:48.788Z,5.14
2022-12-27T01:53:28.640Z,5.10
2022-12-27T01:55:59.488Z,5.05
2022-12-27T01:58:55.193Z,5.09
2022-12-27T02:01:24.885Z,5.14
2022-12-27T02:04:19.091Z,5.14
2022-12-27T02:06:46.241Z,5.11
2022-12-27T02:09:36.731Z,5.07
2022-12-27T02:12:05.427Z,5.03
2022-12-27T02:14:39.251Z,5.00
2022-12-27T02:17:08.046Z,5.03
2022-12-27T02:19:41.287Z,5.10
2022-12-27T02:23:05.051Z,5.09
2022-12-27T02:25:53.630Z,5.07
2022-12-27T02:28:33.068Z,5.04
2022-12-27T02:31:09.599Z,5.00
2022-12-27T02:33:38.230Z,4.96
2022-12-27T02:36:06.109Z,5.00
2022-12-27T02:38:44.600Z,5.05
2022-12-27T02:41:30.271Z,5.08
2022-12-27T02:44:16.589Z,5.05
2022-12-27T02:47:02.374Z,5.02
2022-12-27T02:49:49.116Z,4.97
2022-12-27T02:52:41.215Z,4.94
2022-12-27T02:55:14.202Z,4.98
2022-12-27T02:57:53.178Z,5.05
2022-12-27T03:00:39.957Z,5.07
2022-12-27T03:03:32.223Z,5.07
2022-12-27T03:06:24.236Z,5.06
2022-12-27T03:09:09.940Z,5.04
2022-12-27T03:12:05.913Z,5.10
2022-12-27T03:15:01.635Z,5.16
2022-12-27T03:17:37.704Z,5.17
2022-12-27T03:20:25.987Z,5.15
2022-12-27T03:23:11.829Z,5.14
2022-12-27T03:25:41.056Z,5.11
2022-12-27T03:28:38.178Z,5.12
2022-12-27T03:31:30.948Z,5.17
2022-12-27T03:34:04.785Z,5.17
2022-12-27T03:36:50.383Z,5.14
2022-12-27T03:39:20.904Z,5.10
2022-12-27T03:42:09.599Z,5.05
2022-12-27T03:44:36.472Z,5.08
2022-12-27T03:47:17.517Z,5.13
2022-12-27T03:49:48.683Z,5.16
2022-12-27T03:52:25.539Z,5.15
2022-12-27T03:54:52.995Z,5.11
2022-12-27T03:57:25.314Z,5.05
2022-12-27T03:59:52.510Z,4.99
2022-12-27T04:02:19.576Z,4.92
2022-12-27T04:04:46.715Z,4.92
2022-12-27T04:07:13.906Z,4.96
2022-12-27T04:09:59.851Z,4.97
2022-12-27T04:12:45.643Z,4.94
2022-12-27T04:15:31.439Z,4.90
2022-12-27T04:18:17.600Z,4.85
2022-12-27T04:21:03.186Z,4.82
2022-12-27T04:23:48.610Z,4.89
2022-12-27T04:26:34.168Z,4.96
2022-12-27T04:29:19.694Z,4.99
2022-12-27T04:32:05.275Z,4.99
2022-12-27T04:34:44.286Z,4.99
2022-12-27T04:37:16.864Z,4.97
2022-12-27T04:40:04.250Z,5.01
2022-12-27T04:42:49.676Z,5.08
2022-12-27T04:45:35.186Z,5.11
2022-12-27T04:48:20.808Z,5.10
2022-12-27T04:51:06.249Z,5.08
2022-12-27T04:53:51.826Z,5.06
2022-12-27T04:56:18.688Z,5.13
2022-12-27T04:59:05.466Z,5.20
2022-12-27T05:01:51.085Z,5.23
2022-12-27T05:04:18.047Z,5.22
2022-12-27T05:06:44.885Z,5.19
2022-12-27T05:09:30.469Z,5.16
2022-12-27T05:12:15.883Z,5.11
2022-12-27T05:14:42.739Z,5.13
2022-12-27T05:17:09.633Z,5.17
2022-12-27T05:19:36.471Z,5.18
2022-12-27T05:22:21.937Z,5.16
2022-12-27T05:25:07.466Z,5.11
2022-12-27T05:27:34.479Z,5.05
2022-12-27T05:30:01.678Z,5.01
2022-12-27T05:32:28.452Z,5.03
2022-12-27T05:34:55.397Z,5.09
2022-12-27T05:37:22.264Z,5.12
2022-12-27T05:39:49.090Z,5.12
2022-12-27T05:42:17.061Z,5.12
2022-12-27T05:44:43.878Z,5.10
2022-12-27T05:47:10.651Z,5.07
2022-12-27T05:49:37.567Z,5.12
2022-12-27T05:52:04.577Z,5.19
2022-12-27T05:54:31.355Z,5.21
2022-12-27T05:56:58.201Z,5.21
2022-12-27T05:59:25.027Z,5.20
2022-12-27T06:01:51.963Z,5.17
2022-12-27T06:04:18.887Z,5.14
2022-12-27T06:06:45.816Z,5.16
2022-12-27T06:09:12.683Z,5.20
2022-12-27T06:11:39.542Z,5.21
2022-12-27T06:14:06.391Z,5.18
2022-12-27T06:16:36.168Z,5.14
2022-12-27T06:19:03.057Z,5.10
2022-12-27T06:21:30.081Z,5.05
2022-12-27T06:23:56.917Z,5.04
2022-12-27T06:26:25.519Z,5.07
2022-12-27T06:28:52.701Z,5.05
2022-12-27T06:31:20.115Z,5.02
2022-12-27T06:33:50.479Z,4.97
2022-12-27T06:36:19.010Z,4.92
2022-12-27T06:38:46.003Z,4.89
2022-12-27T06:41:13.895Z,4.91
2022-12-27T06:43:40.911Z,4.97
2022-12-27T06:46:16.882Z,5.02
2022-12-27T06:48:46.288Z,5.02
2022-12-27T06:51:13.392Z,5.01
2022-12-27T06:53:42.508Z,4.98
2022-12-27T06:56:11.098Z,4.93
2022-12-27T06:58:37.963Z,4.95
2022-12-27T07:01:12.045Z,5.01
2022-12-27T09:17:27.319Z,7.96
2022-12-27T09:19:54.378Z,8.48
2022-12-27T09:22:23.464Z,8.47
2022-12-27T09:24:50.429Z,8.49
2022-12-27T09:27:17.459Z,8.49
2022-12-27T09:29:48.233Z,8.45
2022-12-27T09:32:15.466Z,8.39
2022-12-27T09:34:42.499Z,8.31
2022-12-27T09:37:09.432Z,8.23
2022-12-27T09:39:36.588Z,8.17
2022-12-27T09:45:44.403Z,8.24
2022-12-27T09:48:33.053Z,8.26
2022-12-27T09:51:16.397Z,8.28
2022-12-27T09:53:48.169Z,8.30
2022-12-27T09:56:21.696Z,8.37
2022-12-27T09:58:56.427Z,8.45
2022-12-27T10:01:33.155Z,8.44
2022-12-27T10:04:00.651Z,8.42
2022-12-27T10:06:33.695Z,8.40
2022-12-27T10:09:16.849Z,8.42
2022-12-27T10:11:46.242Z,8.47
2022-12-27T10:14:40.910Z,8.50
2022-12-27T10:17:49.368Z,8.48
2022-12-27T10:20:40.765Z,8.49
2022-12-27T10:23:11.644Z,8.55
2022-12-27T10:25:39.448Z,8.58
2022-12-27T10:28:16.179Z,8.57
2022-12-27T10:30:43.680Z,8.56
2022-12-27T10:33:22.607Z,8.51
2022-12-27T10:35:49.454Z,8.52
2022-12-27T10:38:19.199Z,8.56
2022-12-27T10:41:15.937Z,8.57
2022-12-27T10:43:43.409Z,8.51
2022-12-27T10:46:21.291Z,8.46
2022-12-27T10:49:20.246Z,8.42
2022-12-27T10:51:41.574Z,8.41
2022-12-27T10:54:24.286Z,8.41
2022-12-27T10:56:51.430Z,8.34
2022-12-27T10:59:28.851Z,8.28
2022-12-27T11:02:02.573Z,8.22
2022-12-27T11:04:30.926Z,8.13
2022-12-27T11:07:01.026Z,8.09
2022-12-27T11:09:33.219Z,8.10
2022-12-27T11:12:26.192Z,8.12
2022-12-27T11:15:09.868Z,8.07
2022-12-27T11:18:07.735Z,8.01
2022-12-27T11:20:39.315Z,7.95
2022-12-27T11:23:09.421Z,7.95
2022-12-27T11:25:58.690Z,7.97
2022-12-27T11:28:39.055Z,7.98
2022-12-27T11:31:11.714Z,7.93
2022-12-27T11:33:55.265Z,7.87
2022-12-27T11:36:31.505Z,7.81
2022-12-27T11:38:58.878Z,7.82
2022-12-27T11:41:30.043Z,7.84
2022-12-27T11:44:21.243Z,7.82
2022-12-27T11:47:12.561Z,7.74
2022-12-27T11:50:03.461Z,7.67
2022-12-27T11:52:43.932Z,7.63
2022-12-27T11:55:30.023Z,7.65
2022-12-27T11:58:28.199Z,7.69
2022-12-27T12:01:20.148Z,7.71
2022-12-27T12:04:12.070Z,7.70
2022-12-27T12:06:46.908Z,7.65
2022-12-27T12:09:29.496Z,7.66
2022-12-27T12:12:48.148Z,7.65
2022-12-27T12:15:22.582Z,7.57
2022-12-27T12:18:22.606Z,7.46
2022-12-27T12:21:27.652Z,7.27
2022-12-27T12:24:19.787Z,7.10
2022-12-27T12:26:55.521Z,7.06
2022-12-27T12:29:39.149Z,6.97
2022-12-27T12:32:37.494Z,6.86
2022-12-27T12:35:26.185Z,6.74
2022-12-27T12:38:11.149Z,6.64
2022-12-27T12:41:15.065Z,6.50
2022-12-27T12:43:46.325Z,6.33
2022-12-27T12:46:29.006Z,6.25
2022-12-27T12:49:08.357Z,6.21
2022-12-27T12:51:50.902Z,6.15
2022-12-27T12:54:45.957Z,6.09
2022-12-27T12:57:23.257Z,6.00
2022-12-27T13:00:10.145Z,5.89
2022-12-27T13:02:58.955Z,5.74
2022-12-27T13:05:44.304Z,5.64
2022-12-27T17:21:39.190Z,2.83
2022-12-27T17:24:13.341Z,3.09
2022-12-27T17:27:02.228Z,3.06
2022-12-27T17:29:30.086Z,3.01
2022-12-27T17:32:09.960Z,2.97
2022-12-27T17:34:44.386Z,2.94
2022-12-27T17:37:17.034Z,2.89
2022-12-27T17:40:06.093Z,2.85
2022-12-27T17:43:11.128Z,2.78
2022-12-27T17:45:59.774Z,2.71
2022-12-27T17:48:30.936Z,2.65
2022-12-27T17:51:12.421Z,2.60
2022-12-27T17:54:11.759Z,2.55
2022-12-27T17:57:05.197Z,2.51
2022-12-27T17:59:34.204Z,2.57
2022-12-27T18:02:07.011Z,2.65
2022-12-27T18:04:35.562Z,2.71
2022-12-27T18:07:07.692Z,2.75
2022-12-27T18:09:39.881Z,2.79
2022-12-27T18:12:40.696Z,2.83
2022-12-27T18:15:15.771Z,2.85
2022-12-27T18:18:03.945Z,2.84
2022-12-27T18:20:34.195Z,2.84
2022-12-27T18:23:01.189Z,2.83
2022-12-27T18:25:40.533Z,2.81
2022-12-27T18:28:16.741Z,2.79
2022-12-27T18:30:53.853Z,2.76
2022-12-27T18:33:25.571Z,2.74
2022-12-27T18:35:52.517Z,2.71
2022-12-27T18:38:32.673Z,2.69
2022-12-27T18:41:02.560Z,2.68
2022-12-27T18:43:29.530Z,2.67
2022-12-27T18:45:56.505Z,2.67
2022-12-27T18:48:23.938Z,2.66
2022-12-27T18:50:53.307Z,2.66
2022-12-27T18:53:25.236Z,2.65
2022-12-27T18:56:16.406Z,2.64
2022-12-27T18:59:06.053Z,2.63
2022-12-27T19:01:40.970Z,2.62
2022-12-27T19:04:14.516Z,2.59
2022-12-27T19:06:42.547Z,2.57
2022-12-27T19:09:14.443Z,2.56
2022-12-27T19:11:41.397Z,2.56
2022-12-27T19:14:12.436Z,2.56
2022-12-27T19:16:39.411Z,2.57
2022-12-27T19:19:19.774Z,2.59
2022-12-27T19:21:46.687Z,2.61
2022-12-27T19:24:30.827Z,2.62
2022-12-27T19:27:01.007Z,2.64
2022-12-27T19:29:33.358Z,2.66
2022-12-27T19:32:09.780Z,2.68
2022-12-27T19:34:44.474Z,2.70
2022-12-27T19:37:11.759Z,2.73
2022-12-27T19:39:39.173Z,2.74
2022-12-27T19:42:07.906Z,2.75
2022-12-27T19:44:37.419Z,2.77
2022-12-27T19:47:04.576Z,2.77
2022-12-27T19:49:42.694Z,2.79
2022-12-27T19:52:18.492Z,2.80
2022-12-27T19:54:49.039Z,2.83
2022-12-27T19:57:16.506Z,2.84
2022-12-27T19:59:44.623Z,2.86
2022-12-27T20:02:12.906Z,2.86
2022-12-27T20:04:42.899Z,2.87
2022-12-27T20:07:15.161Z,2.88
2022-12-27T20:09:42.389Z,2.88
2022-12-27T20:12:11.910Z,2.89
2022-12-27T20:14:39.152Z,2.89
2022-12-27T20:17:06.292Z,2.90
2022-12-27T20:19:33.758Z,2.90
2022-12-27T20:22:01.026Z,2.91
2022-12-27T20:24:31.752Z,2.91
2022-12-27T20:27:01.553Z,2.89
2022-12-27T20:29:32.807Z,2.89
2022-12-27T20:31:59.943Z,2.87
2022-12-27T20:34:27.044Z,2.85
2022-12-27T20:36:55.614Z,2.83
2022-12-27T20:39:26.838Z,2.81
2022-12-27T20:41:56.121Z,2.79
2022-12-27T20:44:23.091Z,2.76
2022-12-27T20:46:52.289Z,2.81
2022-12-27T20:49:21.469Z,2.89
2022-12-27T20:51:48.806Z,2.95
2022-12-27T20:54:18.320Z,3.00
2022-12-27T20:56:45.262Z,3.04
2022-12-27T20:59:12.209Z,3.06
2022-12-27T21:01:39.610Z,3.09
2022-12-27T21:04:06.812Z,3.10
2022-12-27T21:06:33.763Z,3.10
2022-12-27T21:09:00.721Z,3.10
2022-12-27T21:11:31.666Z,3.09
2022-12-27T21:14:03.218Z,3.08
2022-12-27T21:16:33.175Z,3.07
2022-12-27T21:19:05.132Z,3.07
2022-12-27T21:21:36.830Z,3.07
2022-12-27T21:24:06.383Z,3.08
2022-12-27T21:26:36.174Z,3.09
2022-12-27T21:29:05.753Z,3.11
2022-12-27T21:31:33.193Z,3.12
2022-12-27T21:34:00.222Z,3.12
2022-12-27T21:36:29.888Z,3.12
2022-12-27T21:38:57.089Z,3.10
2022-12-27T21:41:36.482Z,3.07
2022-12-27T21:44:03.471Z,3.05
2022-12-27T21:46:35.009Z,3.03
2022-12-27T21:49:15.341Z,3.03
2022-12-27T21:51:42.743Z,3.02
2022-12-27T21:54:10.695Z,3.02
2022-12-27T21:56:37.951Z,3.01
2022-12-27T21:59:10.778Z,3.01
2022-12-27T22:01:51.026Z,2.99
2022-12-27T22:04:20.615Z,2.97
2022-12-27T22:06:48.143Z,2.95
2022-12-27T22:09:15.148Z,2.95
2022-12-27T22:11:42.084Z,2.94
2022-12-27T22:14:09.151Z,2.91
2022-12-27T22:16:37.308Z,2.89
2022-12-27T22:19:11.112Z,2.85
2022-12-27T22:21:38.798Z,2.80
2022-12-27T22:24:05.912Z,2.78
2022-12-27T22:26:39.782Z,2.77
2022-12-27T22:29:07.966Z,2.84
2022-12-27T22:31:38.320Z,2.94
2022-12-27T22:34:05.741Z,2.99
2022-12-27T22:36:32.823Z,3.00
2022-12-27T22:39:00.025Z,2.99
2022-12-27T22:41:31.870Z,2.96
2022-12-27T22:44:01.904Z,2.93
2022-12-27T22:46:39.337Z,2.91
2022-12-27T22:49:16.338Z,2.88
2022-12-27T22:51:45.596Z,2.83
2022-12-27T22:54:12.430Z,2.78
2022-12-27T22:56:40.253Z,2.71
2022-12-27T22:59:14.349Z,2.65
2022-12-27T23:01:41.480Z,2.57
2022-12-27T23:04:10.171Z,2.49
2022-12-27T23:06:37.383Z,2.42
2022-12-27T23:09:04.489Z,2.38
2022-12-27T23:11:33.418Z,2.34
2022-12-27T23:14:01.886Z,2.33
2022-12-27T23:16:29.236Z,2.32
2022-12-27T23:18:56.096Z,2.32
2022-12-27T23:21:24.776Z,2.31
2022-12-27T23:23:52.355Z,2.29
2022-12-27T23:26:21.235Z,2.36
2022-12-27T23:28:48.423Z,2.48
2022-12-27T23:31:18.771Z,2.55
2022-12-27T23:33:46.122Z,2.58
2022-12-27T23:36:13.337Z,2.60
2022-12-27T23:38:41.472Z,2.62
2022-12-27T23:41:09.064Z,2.62
2022-12-27T23:43:55.038Z,2.63
2022-12-27T23:46:25.137Z,2.63
2022-12-27T23:48:52.077Z,2.63
2022-12-27T23:51:18.995Z,2.63
2022-12-27T23:53:45.875Z,2.63
2022-12-27T23:56:20.788Z,2.62
2022-12-27T23:58:47.964Z,2.59
